Terminal Aerodrome Forecast
Issued by NWS

Home | Current Version | Previous Version | Text Only | Print | Product List | Glossary On
Versions: 1 2 3 4 5 6 7 8 9 10 11 12 13 14 15 16 17 18 19 20 21 22 23 24
225
FTAK31 PAFA 240520
TAFATA
TAF
PATA 240520Z 2406/2506 VRB04KT P6SM VCSH SCT025 BKN050 OVC080
     FM241200 VRB04KT P6SM SCT025 BKN050 OVC100
     FM241800 VRB04KT P6SM VCTS SCT035 BKN050CB OVC100=

USA.gov is the U.S. government's official web portal to all federal, state and local government web resources and services.